Time;durP1;ratioP1;P1;durP2;ratioP2;P2;SDS_P1;SDS_P2;PMS_P1;PMS_P2;Temp;Humidity;BMP_temperature;BMP_pressure;BME280_temperature;BME280_humidity;BME280_pressure;Samples;Min_cycle;Max_cycle;Signal;HPM_P1;HPM_P2
2023/09/06 00:02:25;;;;;;;5.27;4.87;;;15.30;99.90;;;;;;5045436;28;20175;-75
2023/09/06 00:04:51;;;;;;;4.67;4.37;;;15.30;99.90;;;;;;5056653;28;20195;-73
2023/09/06 00:07:16;;;;;;;4.80;4.50;;;15.40;99.90;;;;;;5051499;28;20835;-73
2023/09/06 00:09:42;;;;;;;4.90;4.50;;;15.40;99.90;;;;;;5047890;28;20171;-75
2023/09/06 00:12:08;;;;;;;5.43;4.97;;;15.40;99.90;;;;;;5036313;28;20180;-71
2023/09/06 00:14:36;;;;;;;4.70;4.40;;;15.40;99.90;;;;;;5036244;28;20164;-76
2023/09/06 00:17:02;;;;;;;4.50;4.20;;;15.30;99.90;;;;;;5035817;28;20767;-73
2023/09/06 00:19:29;;;;;;;5.47;4.87;;;15.30;99.90;;;;;;5036528;28;20441;-69
2023/09/06 00:21:55;;;;;;;5.20;4.70;;;15.20;99.90;;;;;;5036643;28;20414;-71
2023/09/06 00:24:20;;;;;;;4.73;4.43;;;15.30;99.90;;;;;;5043290;28;20524;-75
2023/09/06 00:26:46;;;;;;;4.63;4.33;;;15.30;99.90;;;;;;5054484;28;20202;-74
2023/09/06 00:29:12;;;;;;;6.83;5.23;;;15.30;99.90;;;;;;5056631;28;20572;-70
2023/09/06 00:31:37;;;;;;;5.63;5.23;;;15.30;99.90;;;;;;5056136;28;20532;-74
2023/09/06 00:34:03;;;;;;;5.53;5.03;;;15.30;99.90;;;;;;5056215;28;20166;-69
2023/09/06 00:36:32;;;;;;;8.00;5.10;;;15.30;99.90;;;;;;5039713;28;20513;-75
2023/09/06 00:38:58;;;;;;;6.10;4.40;;;15.30;99.90;;;;;;5051177;28;20548;-75
2023/09/06 00:41:25;;;;;;;5.30;4.90;;;15.30;99.90;;;;;;5054280;28;20458;-75
2023/09/06 00:43:50;;;;;;;5.20;4.80;;;15.20;99.90;;;;;;5039491;28;20532;-69
2023/09/06 00:46:18;;;;;;;5.80;5.03;;;15.00;99.90;;;;;;5046637;28;20414;-72
2023/09/06 00:48:43;;;;;;;5.83;5.33;;;15.00;99.90;;;;;;5052848;28;20214;-75
2023/09/06 00:51:10;;;;;;;6.30;5.70;;;15.00;99.90;;;;;;5038254;28;20456;-71
2023/09/06 00:53:36;;;;;;;6.73;4.87;;;15.00;99.90;;;;;;5048987;28;20184;-76
2023/09/06 00:56:08;;;;;;;5.07;4.77;;;15.10;99.90;;;;;;5052317;28;20429;-73
2023/09/06 00:58:35;;;;;;;5.93;5.20;;;15.10;99.90;;;;;;5043283;28;20485;-69
2023/09/06 01:01:03;;;;;;;8.20;5.40;;;15.10;99.90;;;;;;5051447;28;20472;-69
2023/09/06 01:03:29;;;;;;;6.27;5.83;;;15.10;99.90;;;;;;5052068;28;20425;-75
2023/09/06 01:06:16;;;;;;;6.20;5.67;;;15.10;99.90;;;;;;5042533;28;20436;-76
2023/09/06 01:08:46;;;;;;;7.60;7.00;;;15.10;99.90;;;;;;5047148;28;20201;-70
2023/09/06 01:11:21;;;;;;;8.97;5.97;;;15.10;99.90;;;;;;5049317;28;20437;-70
2023/09/06 01:13:55;;;;;;;5.80;5.33;;;15.10;99.90;;;;;;5048183;28;20432;-69
2023/09/06 01:16:32;;;;;;;6.63;6.03;;;15.10;99.90;;;;;;5051309;28;20417;-75
2023/09/06 01:18:59;;;;;;;7.80;6.47;;;15.10;99.90;;;;;;5053541;28;20456;-75
2023/09/06 01:21:29;;;;;;;7.40;6.80;;;15.10;99.90;;;;;;5040982;28;20921;-70
2023/09/06 01:23:56;;;;;;;7.60;7.00;;;15.10;99.90;;;;;;5039283;28;20422;-72
2023/09/06 01:26:22;;;;;;;8.60;7.80;;;15.10;99.90;;;;;;5048802;28;20509;-75
2023/09/06 01:28:49;;;;;;;9.33;8.30;;;15.10;99.90;;;;;;5049039;28;20844;-69
2023/09/06 01:31:15;;;;;;;9.60;8.70;;;15.10;99.90;;;;;;5053638;28;20980;-75
2023/09/06 01:33:41;;;;;;;13.47;11.57;;;15.10;99.90;;;;;;5052177;28;20516;-69
2023/09/06 01:36:07;;;;;;;14.93;13.43;;;15.10;99.90;;;;;;5047604;28;20509;-75
2023/09/06 01:38:32;;;;;;;16.20;13.07;;;15.10;99.90;;;;;;5048648;28;20237;-75
2023/09/06 01:41:00;;;;;;;16.80;15.00;;;15.20;99.90;;;;;;5045473;28;20201;-71
2023/09/06 01:43:28;;;;;;;20.03;15.97;;;15.20;99.90;;;;;;5048907;28;20220;-70
2023/09/06 01:45:54;;;;;;;20.10;17.80;;;15.30;99.90;;;;;;5051046;28;20798;-69
2023/09/06 01:48:20;;;;;;;20.17;17.73;;;15.30;99.90;;;;;;5054021;28;20413;-69
2023/09/06 01:50:46;;;;;;;27.37;21.13;;;15.30;99.90;;;;;;4989162;28;1649226;-69
2023/09/06 01:53:15;;;;;;;25.80;18.47;;;15.30;99.90;;;;;;5045814;28;20206;-75
2023/09/06 01:55:42;;;;;;;22.20;18.40;;;15.30;99.90;;;;;;5038748;28;20445;-70
2023/09/06 01:58:12;;;;;;;20.00;17.90;;;15.30;99.90;;;;;;5046897;28;20510;-75
2023/09/06 02:00:38;;;;;;;17.43;14.63;;;15.30;99.90;;;;;;5053930;28;20535;-70
2023/09/06 02:03:07;;;;;;;20.47;16.47;;;15.30;99.90;;;;;;5053169;28;20433;-69
2023/09/06 02:05:33;;;;;;;19.60;17.53;;;15.30;99.90;;;;;;5044048;28;20429;-69
2023/09/06 02:07:59;;;;;;;18.97;16.77;;;15.30;99.90;;;;;;5034442;28;20503;-76
2023/09/06 02:10:25;;;;;;;20.03;17.83;;;15.30;99.90;;;;;;5043695;28;20523;-69
2023/09/06 02:12:51;;;;;;;19.87;17.30;;;15.30;99.90;;;;;;5054578;28;20538;-74
2023/09/06 02:15:17;;;;;;;21.53;17.53;;;15.20;99.90;;;;;;5053710;28;20413;-74
2023/09/06 02:17:44;;;;;;;21.20;17.87;;;15.20;99.90;;;;;;5054158;28;20945;-70
2023/09/06 02:20:20;;;;;;;17.50;15.63;;;15.30;99.90;;;;;;5053643;28;20457;-75
2023/09/06 02:22:56;;;;;;;18.70;16.10;;;15.20;99.90;;;;;;5048136;28;20432;-74
2023/09/06 02:25:30;;;;;;;18.20;16.30;;;15.20;99.90;;;;;;5039772;28;20431;-72
2023/09/06 02:27:57;;;;;;;19.37;15.43;;;15.20;99.90;;;;;;5054131;28;20508;-70
2023/09/06 02:30:22;;;;;;;18.20;15.83;;;15.10;99.90;;;;;;5054400;28;20391;-70
2023/09/06 02:32:49;;;;;;;17.83;16.03;;;15.10;99.90;;;;;;5054336;28;20413;-75
2023/09/06 02:35:15;;;;;;;21.00;16.10;;;15.10;99.90;;;;;;5047431;28;20179;-71
2023/09/06 02:37:41;;;;;;;19.23;16.10;;;15.10;99.90;;;;;;5048378;28;20460;-69
2023/09/06 02:40:14;;;;;;;19.53;15.93;;;15.10;99.90;;;;;;5041630;28;20474;-71
2023/09/06 02:42:43;;;;;;;24.73;19.20;;;15.10;99.90;;;;;;5052940;28;20353;-70
2023/09/06 02:45:13;;;;;;;18.00;16.10;;;15.10;99.90;;;;;;5042591;28;20444;-69
2023/09/06 02:47:49;;;;;;;18.83;16.20;;;15.10;99.90;;;;;;5034516;28;20462;-69
2023/09/06 02:50:17;;;;;;;21.07;17.27;;;15.00;99.90;;;;;;5047814;28;20442;-74
2023/09/06 02:52:45;;;;;;;18.13;15.03;;;15.10;99.90;;;;;;5052538;28;20441;-71
2023/09/06 02:55:13;;;;;;;19.50;15.50;;;15.00;99.90;;;;;;5039309;28;20445;-72
2023/09/06 02:57:40;;;;;;;22.87;17.20;;;15.10;99.90;;;;;;5049750;28;20452;-69
2023/09/06 03:00:18;;;;;;;23.40;18.67;;;15.00;99.90;;;;;;5052891;28;20937;-72
2023/09/06 03:02:45;;;;;;;21.10;18.03;;;15.00;99.90;;;;;;5035117;28;20430;-71
2023/09/06 03:05:17;;;;;;;21.17;17.10;;;15.00;99.90;;;;;;5050515;28;20429;-69
2023/09/06 03:07:53;;;;;;;19.20;16.50;;;15.10;99.90;;;;;;5051197;28;20454;-74
2023/09/06 03:10:22;;;;;;;21.73;17.57;;;15.00;99.90;;;;;;5052356;28;20436;-74
2023/09/06 03:12:57;;;;;;;22.13;17.50;;;15.10;99.90;;;;;;5050837;28;20515;-71
2023/09/06 03:15:23;;;;;;;23.40;17.23;;;15.10;99.90;;;;;;5049893;28;20554;-72
2023/09/06 03:17:51;;;;;;;19.80;17.67;;;15.00;99.90;;;;;;5052599;28;20457;-71
2023/09/06 03:20:22;;;;;;;23.47;18.73;;;15.00;99.90;;;;;;5050789;28;20500;-69
2023/09/06 03:22:51;;;;;;;21.87;19.47;;;15.00;99.90;;;;;;5051096;28;20483;-74
2023/09/06 03:25:18;;;;;;;23.27;19.30;;;15.00;99.90;;;;;;5039669;28;20437;-72
2023/09/06 03:27:44;;;;;;;25.60;20.60;;;15.00;99.90;;;;;;5032972;28;20425;-69
2023/09/06 03:30:15;;;;;;;24.07;19.77;;;15.00;99.90;;;;;;5037085;28;20436;-75
2023/09/06 03:32:42;;;;;;;22.60;18.60;;;15.10;99.90;;;;;;5044321;28;20489;-74
2023/09/06 03:35:08;;;;;;;21.73;19.10;;;15.00;99.90;;;;;;5048450;28;20960;-68
2023/09/06 03:37:34;;;;;;;20.03;17.87;;;15.00;99.90;;;;;;5046195;28;20452;-70
2023/09/06 03:40:00;;;;;;;22.17;18.27;;;15.00;99.90;;;;;;5033253;28;20473;-76
2023/09/06 03:42:26;;;;;;;31.70;20.10;;;15.00;99.90;;;;;;5037853;28;20194;-76
2023/09/06 03:44:52;;;;;;;22.57;19.40;;;15.00;99.90;;;;;;5032239;28;20414;-69
2023/09/06 03:47:19;;;;;;;28.17;21.03;;;15.00;99.90;;;;;;5044501;28;20438;-71
2023/09/06 03:49:45;;;;;;;23.43;20.70;;;15.00;99.90;;;;;;5043575;28;20187;-71
2023/09/06 03:52:12;;;;;;;24.47;20.63;;;15.00;99.90;;;;;;5050529;28;20432;-71
2023/09/06 03:54:38;;;;;;;25.50;21.67;;;15.00;99.90;;;;;;5052987;28;20992;-74
2023/09/06 03:57:04;;;;;;;31.70;23.90;;;15.00;99.90;;;;;;5052213;28;20389;-74
2023/09/06 03:59:37;;;;;;;33.63;29.37;;;15.00;99.90;;;;;;5053182;28;20190;-70
2023/09/06 04:02:07;;;;;;;37.83;29.13;;;15.00;99.90;;;;;;5041412;28;20794;-74
2023/09/06 04:04:34;;;;;;;36.47;27.90;;;15.10;99.90;;;;;;5032394;28;20456;-70
2023/09/06 04:07:00;;;;;;;32.73;26.80;;;15.10;99.90;;;;;;5039098;28;20445;-74
2023/09/06 04:09:31;;;;;;;33.17;25.63;;;15.20;99.90;;;;;;5052626;28;20413;-72
2023/09/06 04:11:59;;;;;;;30.57;23.20;;;15.20;99.90;;;;;;5045565;28;20434;-74
2023/09/06 04:14:25;;;;;;;31.13;25.77;;;15.20;99.90;;;;;;5043069;28;21027;-75
2023/09/06 04:16:51;;;;;;;32.50;27.97;;;15.30;99.90;;;;;;5051890;28;20385;-75
2023/09/06 04:19:17;;;;;;;33.27;25.30;;;15.30;99.90;;;;;;5052780;28;20751;-72
2023/09/06 04:21:43;;;;;;;28.47;24.13;;;15.30;99.90;;;;;;5049051;28;20481;-70
2023/09/06 04:24:09;;;;;;;26.87;22.80;;;15.30;99.90;;;;;;5031562;28;20168;-69
2023/09/06 04:26:35;;;;;;;24.67;21.97;;;15.30;99.90;;;;;;5031972;28;20764;-74
2023/09/06 04:29:04;;;;;;;24.33;21.63;;;15.20;99.90;;;;;;5032233;28;20616;-69
2023/09/06 04:31:30;;;;;;;24.67;19.57;;;15.10;99.90;;;;;;5032682;28;20250;-75
2023/09/06 04:33:58;;;;;;;21.10;17.87;;;15.00;99.90;;;;;;5032747;28;20402;-75
2023/09/06 04:36:24;;;;;;;16.97;15.07;;;15.00;99.90;;;;;;5037166;28;20442;-75
2023/09/06 04:38:49;;;;;;;19.97;15.50;;;15.00;99.90;;;;;;5034276;28;20450;-69
2023/09/06 04:41:15;;;;;;;21.40;18.47;;;14.90;99.90;;;;;;5045590;28;20215;-75
2023/09/06 04:43:41;;;;;;;20.53;18.40;;;14.90;99.90;;;;;;5043903;28;20178;-73
2023/09/06 04:46:06;;;;;;;22.43;19.10;;;14.90;99.90;;;;;;5042448;28;20172;-69
2023/09/06 04:48:32;;;;;;;19.73;16.50;;;14.90;99.90;;;;;;5042396;28;20704;-69
2023/09/06 04:50:59;;;;;;;16.77;15.00;;;14.90;99.90;;;;;;5049313;28;20253;-69
2023/09/06 04:53:25;;;;;;;25.17;16.73;;;14.90;99.90;;;;;;5041881;28;20205;-75
2023/09/06 04:55:52;;;;;;;16.50;14.80;;;14.90;99.90;;;;;;5054397;28;21012;-70
2023/09/06 04:58:18;;;;;;;19.17;16.63;;;14.90;99.90;;;;;;5053809;28;20449;-70
2023/09/06 05:00:47;;;;;;;18.90;16.90;;;14.90;99.90;;;;;;5054064;28;20488;-72
2023/09/06 05:03:17;;;;;;;23.63;17.77;;;14.80;99.90;;;;;;5055500;28;20409;-71
2023/09/06 05:05:47;;;;;;;19.07;17.03;;;14.80;99.90;;;;;;5043679;28;20794;-75
2023/09/06 05:08:13;;;;;;;22.00;17.33;;;14.80;99.90;;;;;;5042894;28;20460;-69
2023/09/06 05:10:41;;;;;;;19.37;16.67;;;14.70;99.90;;;;;;5051645;28;20429;-72
2023/09/06 05:13:07;;;;;;;18.97;16.33;;;14.70;99.90;;;;;;5046787;28;20433;-75
2023/09/06 05:15:37;;;;;;;25.33;18.07;;;14.80;99.90;;;;;;5049101;28;20436;-70
2023/09/06 05:18:04;;;;;;;21.10;16.00;;;14.80;99.90;;;;;;5054619;28;20453;-75
2023/09/06 05:20:35;;;;;;;19.47;16.53;;;14.80;99.90;;;;;;5049537;28;20519;-69
2023/09/06 05:23:04;;;;;;;18.87;14.63;;;14.90;99.90;;;;;;5034689;28;20487;-74
2023/09/06 05:25:30;;;;;;;18.83;15.53;;;14.80;99.90;;;;;;5044060;28;20464;-74
2023/09/06 05:27:58;;;;;;;19.30;16.70;;;14.90;99.90;;;;;;5038458;28;20446;-70
2023/09/06 05:30:25;;;;;;;20.43;16.43;;;14.80;99.90;;;;;;5052136;28;20478;-75
2023/09/06 05:32:50;;;;;;;17.17;15.43;;;14.90;99.90;;;;;;5043508;28;20925;-72
2023/09/06 05:35:16;;;;;;;17.63;14.50;;;14.90;99.90;;;;;;5051782;28;20548;-74
2023/09/06 05:37:42;;;;;;;18.97;15.43;;;14.90;99.90;;;;;;5047433;28;20195;-70
2023/09/06 05:40:09;;;;;;;18.13;15.17;;;15.00;99.90;;;;;;5037858;28;20251;-75
2023/09/06 05:42:35;;;;;;;23.00;14.50;;;15.00;99.90;;;;;;5046919;28;20418;-73
2023/09/06 05:45:01;;;;;;;18.57;15.33;;;15.10;99.90;;;;;;5051083;28;20429;-77
2023/09/06 05:47:27;;;;;;;15.57;13.83;;;15.10;99.90;;;;;;5043689;28;20807;-70
2023/09/06 05:49:55;;;;;;;15.03;13.20;;;15.10;99.90;;;;;;5035072;28;20433;-74
2023/09/06 05:52:22;;;;;;;17.33;14.43;;;15.20;99.90;;;;;;5044587;28;20186;-70
2023/09/06 05:54:48;;;;;;;15.90;14.17;;;15.20;99.90;;;;;;5044538;28;20409;-74
2023/09/06 05:57:14;;;;;;;18.43;15.87;;;15.20;99.90;;;;;;5053339;28;20397;-70
2023/09/06 05:59:40;;;;;;;16.87;14.27;;;15.30;99.90;;;;;;5036814;28;20159;-75
2023/09/06 06:02:07;;;;;;;18.30;15.83;;;15.30;99.90;;;;;;5035039;28;20453;-74
2023/09/06 06:04:32;;;;;;;18.47;16.37;;;15.40;99.90;;;;;;5043895;28;20481;-70
2023/09/06 06:06:58;;;;;;;22.70;18.67;;;15.40;99.90;;;;;;5033818;28;20862;-70
2023/09/06 06:09:25;;;;;;;20.53;16.60;;;15.50;99.90;;;;;;5034718;28;20233;-75
2023/09/06 06:11:54;;;;;;;17.30;15.40;;;15.50;99.90;;;;;;5034490;28;20255;-69
2023/09/06 06:14:20;;;;;;;19.30;16.70;;;15.60;99.90;;;;;;5034584;28;20410;-75
2023/09/06 06:16:46;;;;;;;35.87;27.17;;;15.60;99.90;;;;;;5033078;28;20438;-76
2023/09/06 06:19:12;;;;;;;47.07;35.17;;;15.60;99.90;;;;;;5036435;28;20978;-74
2023/09/06 06:21:39;;;;;;;78.80;53.27;;;15.70;99.90;;;;;;5035106;28;20561;-74
2023/09/06 06:24:09;;;;;;;48.40;33.87;;;15.70;99.90;;;;;;5034383;28;20884;-69
2023/09/06 06:26:34;;;;;;;33.50;24.67;;;15.80;99.90;;;;;;5033392;28;20409;-75
2023/09/06 06:29:01;;;;;;;22.20;19.07;;;15.90;99.90;;;;;;5042962;28;20926;-75
2023/09/06 06:31:27;;;;;;;21.30;17.23;;;15.90;99.90;;;;;;5054361;28;20167;-76
2023/09/06 06:33:53;;;;;;;19.93;16.17;;;16.00;99.90;;;;;;5044171;28;20434;-74
2023/09/06 06:36:19;;;;;;;18.70;16.80;;;16.10;99.90;;;;;;5033014;28;20922;-74
2023/09/06 06:38:48;;;;;;;20.03;17.40;;;16.20;99.90;;;;;;5034709;28;20278;-73
2023/09/06 06:41:22;;;;;;;22.20;16.80;;;16.30;99.90;;;;;;5034021;28;20278;-69
2023/09/06 06:43:49;;;;;;;21.10;16.20;;;16.40;99.90;;;;;;5033891;28;20397;-75
2023/09/06 06:46:28;;;;;;;20.23;17.47;;;16.50;99.90;;;;;;5049104;28;20452;-74
2023/09/06 06:48:54;;;;;;;21.10;17.97;;;16.70;1.00;;;;;;5045050;28;20445;-73
2023/09/06 06:51:20;;;;;;;20.10;17.90;;;16.80;1.00;;;;;;5033373;28;20802;-70
2023/09/06 06:53:46;;;;;;;20.57;17.83;;;16.90;1.00;;;;;;5051911;28;20505;-70
2023/09/06 06:56:12;;;;;;;22.07;18.27;;;16.90;1.00;;;;;;5036681;28;20411;-69
2023/09/06 06:58:37;;;;;;;24.23;19.13;;;17.10;1.00;;;;;;5036362;28;20194;-74
2023/09/06 07:01:03;;;;;;;23.17;19.50;;;17.20;1.00;;;;;;5052337;28;20203;-72
2023/09/06 07:03:29;;;;;;;22.33;19.20;;;17.30;1.00;;;;;;5049493;28;20262;-73
2023/09/06 07:05:55;;;;;;;22.03;19.30;;;17.40;1.00;;;;;;5032588;28;20171;-74
2023/09/06 07:08:25;;;;;;;23.57;19.47;;;17.50;1.00;;;;;;5032013;28;20587;-69
2023/09/06 07:10:51;;;;;;;21.43;18.60;;;17.70;1.00;;;;;;5036439;28;20409;-74
2023/09/06 07:13:16;;;;;;;22.97;18.47;;;17.80;1.00;;;;;;5034129;28;20452;-71
2023/09/06 07:15:42;;;;;;;33.87;25.73;;;17.80;1.00;;;;;;5035423;28;20181;-69
2023/09/06 07:18:09;;;;;;;33.50;25.23;;;18.00;1.00;;;;;;5052264;28;20203;-69
2023/09/06 07:20:35;;;;;;;24.57;20.37;;;18.10;1.00;;;;;;5047816;28;20453;-69
2023/09/06 07:23:01;;;;;;;23.23;19.00;;;18.20;1.00;;;;;;5052977;28;20758;-71
2023/09/06 07:25:27;;;;;;;23.57;17.60;;;18.40;1.00;;;;;;5052343;28;20393;-73
2023/09/06 07:27:53;;;;;;;23.07;18.93;;;18.50;1.00;;;;;;5053409;28;20185;-74
2023/09/06 07:30:19;;;;;;;21.73;19.33;;;18.60;1.00;;;;;;5051956;28;20405;-66
2023/09/06 07:32:45;;;;;;;19.57;16.63;;;18.70;1.00;;;;;;5040237;28;20457;-72
2023/09/06 07:35:12;;;;;;;19.30;17.40;;;18.80;1.00;;;;;;5043500;28;20194;-68
2023/09/06 07:37:37;;;;;;;17.73;15.77;;;19.00;1.00;;;;;;5052654;28;20221;-70
2023/09/06 07:40:04;;;;;;;15.53;13.93;;;19.10;1.00;;;;;;5052759;28;21180;-66
2023/09/06 07:42:29;;;;;;;14.53;13.00;;;19.20;1.00;;;;;;5051767;28;20254;-72
2023/09/06 07:44:56;;;;;;;15.77;14.00;;;19.30;1.00;;;;;;5049240;28;21025;-66
2023/09/06 07:47:22;;;;;;;14.87;13.27;;;19.40;1.00;;;;;;5032809;28;20171;-75
2023/09/06 07:49:48;;;;;;;13.27;11.70;;;19.50;1.00;;;;;;5033628;28;20418;-71
2023/09/06 07:52:14;;;;;;;12.87;11.57;;;19.70;1.00;;;;;;5033239;28;20934;-66
2023/09/06 07:54:40;;;;;;;12.63;11.30;;;19.80;1.00;;;;;;5033254;28;20628;-72
2023/09/06 07:57:06;;;;;;;15.43;14.00;;;19.90;1.00;;;;;;5031868;28;20160;-69
2023/09/06 07:59:32;;;;;;;13.73;11.80;;;20.00;1.00;;;;;;5032951;28;20897;-70
2023/09/06 08:01:58;;;;;;;12.60;11.30;;;20.10;1.00;;;;;;5052962;28;20242;-66
2023/09/06 08:04:23;;;;;;;10.40;9.40;;;20.20;1.00;;;;;;5049836;28;20185;-69
2023/09/06 08:06:49;;;;;;;12.50;11.30;;;20.30;1.00;;;;;;5051873;28;20171;-67
2023/09/06 08:09:15;;;;;;;16.00;10.30;;;20.40;1.00;;;;;;5046453;28;20229;-67
2023/09/06 08:11:41;;;;;;;9.90;8.90;;;20.60;99.90;;;;;;5052812;28;20171;-66
2023/09/06 08:14:06;;;;;;;13.40;12.10;;;20.70;99.90;;;;;;5051783;28;20249;-72
2023/09/06 08:16:32;;;;;;;13.57;12.00;;;20.80;99.90;;;;;;5051723;28;20194;-71
2023/09/06 08:18:58;;;;;;;11.50;10.30;;;21.00;99.90;;;;;;5051023;28;20202;-71
2023/09/06 08:21:24;;;;;;;13.30;10.00;;;21.00;99.90;;;;;;5046661;28;20667;-70
2023/09/06 08:23:49;;;;;;;8.53;7.73;;;21.20;99.90;;;;;;5055343;28;20833;-71
2023/09/06 08:26:15;;;;;;;9.50;8.70;;;21.30;99.90;;;;;;5054443;28;20266;-70
2023/09/06 08:28:41;;;;;;;10.20;9.23;;;21.40;99.90;;;;;;5056109;28;20186;-70
2023/09/06 08:31:07;;;;;;;8.33;7.30;;;21.50;99.90;;;;;;5056547;28;20166;-72
2023/09/06 08:33:33;;;;;;;7.63;6.80;;;21.60;99.90;;;;;;5051880;28;20183;-73
2023/09/06 08:35:58;;;;;;;8.67;7.90;;;21.70;99.90;;;;;;5035405;28;20186;-69
2023/09/06 08:38:24;;;;;;;6.67;5.90;;;21.80;99.90;;;;;;5036821;28;20930;-69
2023/09/06 08:40:50;;;;;;;6.80;6.30;;;22.00;99.90;;;;;;5036493;28;20675;-67
2023/09/06 08:43:19;;;;;;;6.47;5.87;;;22.20;99.90;;;;;;5036510;28;20628;-66
2023/09/06 08:45:48;;;;;;;6.93;6.27;;;22.30;99.90;;;;;;5033673;28;20171;-67
2023/09/06 08:48:14;;;;;;;5.70;5.10;;;22.50;99.90;;;;;;5046123;28;20552;-71
2023/09/06 08:50:41;;;;;;;5.87;5.13;;;22.60;99.90;;;;;;5056225;28;20425;-68
2023/09/06 08:53:10;;;;;;;7.93;5.20;;;22.70;99.90;;;;;;5042130;28;20421;-66
2023/09/06 08:55:37;;;;;;;9.30;4.70;;;22.80;99.90;;;;;;5049291;28;20985;-67
2023/09/06 08:58:03;;;;;;;5.03;4.63;;;23.00;99.90;;;;;;5055652;28;21093;-67
2023/09/06 09:00:30;;;;;;;11.77;4.53;;;23.10;99.90;;;;;;5056017;28;20444;-70
2023/09/06 09:02:57;;;;;;;4.80;4.40;;;23.20;99.90;;;;;;5053531;28;20441;-66
2023/09/06 09:05:23;;;;;;;4.73;4.40;;;23.40;99.90;;;;;;5054974;28;20408;-68
2023/09/06 09:08:00;;;;;;;4.97;4.47;;;23.60;99.90;;;;;;5055372;28;20441;-71
2023/09/06 09:10:31;;;;;;;4.07;3.77;;;23.80;97.30;;;;;;5052745;28;20190;-69
2023/09/06 09:12:58;;;;;;;4.37;3.97;;;24.10;97.20;;;;;;5036027;28;20402;-66
2023/09/06 09:15:27;;;;;;;4.53;4.00;;;24.30;83.60;;;;;;5034944;28;20425;-70
2023/09/06 09:17:53;;;;;;;5.20;4.80;;;24.50;68.70;;;;;;5052322;28;20507;-68
2023/09/06 09:20:19;;;;;;;4.60;4.30;;;24.60;52.60;;;;;;5053726;28;20461;-71
2023/09/06 09:22:45;;;;;;;10.07;5.20;;;24.70;50.50;;;;;;5048650;28;20444;-71
2023/09/06 09:25:20;;;;;;;5.00;4.50;;;25.00;47.20;;;;;;5046878;28;20198;-68
2023/09/06 09:27:50;;;;;;;7.73;4.50;;;25.20;27.30;;;;;;5055280;28;20412;-66
2023/09/06 09:30:18;;;;;;;4.67;4.13;;;25.30;1.00;;;;;;5049645;28;20432;-68
2023/09/06 09:32:44;;;;;;;4.93;3.70;;;25.60;1.00;;;;;;5055450;28;20431;-70
2023/09/06 09:35:11;;;;;;;4.17;3.87;;;26.20;1.00;;;;;;5054733;28;20413;-66
2023/09/06 09:37:39;;;;;;;4.53;4.13;;;26.60;1.00;;;;;;5041721;28;20241;-67
2023/09/06 09:40:18;;;;;;;5.07;3.93;;;26.80;1.00;;;;;;5035197;28;20489;-70
2023/09/06 09:42:57;;;;;;;4.60;4.27;;;26.80;1.00;;;;;;5042166;28;20944;-71
2023/09/06 09:45:25;;;;;;;5.90;4.23;;;26.70;1.00;;;;;;5035240;28;20460;-73
2023/09/06 09:47:57;;;;;;;4.40;4.00;;;26.80;1.00;;;;;;5055343;28;20436;-66
2023/09/06 09:50:26;;;;;;;4.77;4.27;;;27.20;1.00;;;;;;5053691;28;20836;-69
2023/09/06 09:52:52;;;;;;;5.73;5.07;;;27.30;1.00;;;;;;5055087;28;20963;-67
2023/09/06 09:55:22;;;;;;;5.17;4.70;;;27.20;1.00;;;;;;5054139;28;20429;-66
2023/09/06 09:57:48;;;;;;;4.83;4.50;;;27.10;1.00;;;;;;5048806;28;20463;-65
2023/09/06 10:00:15;;;;;;;5.77;5.13;;;27.20;1.00;;;;;;5050623;28;20511;-70
2023/09/06 10:02:45;;;;;;;7.07;4.30;;;27.30;1.00;;;;;;5052623;28;20507;-67
2023/09/06 10:05:16;;;;;;;5.57;5.07;;;27.80;1.00;;;;;;5054174;28;20426;-71
2023/09/06 10:07:43;;;;;;;5.50;5.00;;;28.10;1.00;;;;;;5054845;28;20423;-68
2023/09/06 10:10:12;;;;;;;6.17;3.70;;;27.80;1.00;;;;;;5054830;28;20790;-70
2023/09/06 10:12:48;;;;;;;4.40;4.00;;;28.00;1.00;;;;;;5052048;28;20459;-69
2023/09/06 10:15:13;;;;;;;7.17;5.03;;;28.10;1.00;;;;;;5053423;28;21362;-66
2023/09/06 10:17:40;;;;;;;5.57;3.73;;;28.40;1.00;;;;;;5051837;28;20492;-68
2023/09/06 10:20:14;;;;;;;5.00;4.60;;;28.60;1.00;;;;;;5054095;28;20155;-65
2023/09/06 10:22:46;;;;;;;5.17;4.70;;;28.20;1.00;;;;;;5054365;28;20413;-64
2023/09/06 10:25:15;;;;;;;4.90;4.43;;;27.70;1.00;;;;;;5053783;28;20405;-69
2023/09/06 10:27:55;;;;;;;4.17;3.80;;;27.10;1.00;;;;;;5050962;28;20555;-65
2023/09/06 10:30:34;;;;;;;4.53;4.20;;;26.70;1.00;;;;;;5052940;28;20937;-71
2023/09/06 10:33:02;;;;;;;6.07;3.70;;;26.50;1.00;;;;;;5054086;28;20405;-70
2023/09/06 10:35:32;;;;;;;5.63;4.20;;;26.30;1.00;;;;;;5050694;28;20444;-70
2023/09/06 10:38:10;;;;;;;4.50;4.20;;;26.30;1.00;;;;;;5054243;28;20821;-65
2023/09/06 10:40:56;;;;;;;5.50;4.10;;;26.20;1.00;;;;;;5051867;28;20540;-69
2023/09/06 10:43:51;;;;;;;4.30;3.90;;;26.40;1.00;;;;;;5036773;28;20487;-65
2023/09/06 10:46:23;;;;;;;7.00;3.80;;;26.50;1.00;;;;;;5042456;28;20436;-66
2023/09/06 10:49:16;;;;;;;4.47;3.83;;;26.50;1.00;;;;;;5053407;28;20413;-71
2023/09/06 10:52:04;;;;;;;3.87;3.57;;;26.40;1.00;;;;;;5050325;28;20882;-67
2023/09/06 10:54:39;;;;;;;5.40;4.10;;;26.40;1.00;;;;;;5054244;28;20405;-65
2023/09/06 10:57:10;;;;;;;4.97;3.50;;;26.50;1.00;;;;;;5050328;28;20429;-69
2023/09/06 10:59:42;;;;;;;7.13;4.43;;;26.60;1.00;;;;;;5048993;28;20425;-65
2023/09/06 11:02:26;;;;;;;4.10;3.80;;;26.60;1.00;;;;;;5053347;28;20475;-67
2023/09/06 11:05:09;;;;;;;6.30;3.87;;;26.50;1.00;;;;;;5052094;28;20408;-65
2023/09/06 11:07:43;;;;;;;3.53;3.27;;;26.70;1.00;;;;;;5051958;28;20516;-65
2023/09/06 11:10:10;;;;;;;9.73;4.50;;;26.80;1.00;;;;;;5053682;28;20441;-68
2023/09/06 11:12:37;;;;;;;4.13;3.77;;;26.80;1.00;;;;;;5051238;28;20433;-70
2023/09/06 11:15:05;;;;;;;6.77;3.60;;;26.90;1.00;;;;;;5037767;28;20431;-72
2023/09/06 11:17:31;;;;;;;3.57;3.37;;;27.00;1.00;;;;;;5032158;28;20426;-72
2023/09/06 11:20:10;;;;;;;4.03;3.57;;;26.80;1.00;;;;;;5033305;28;20433;-70
2023/09/06 11:22:35;;;;;;;4.10;3.77;;;26.80;1.00;;;;;;5039211;28;20465;-72
2023/09/06 11:25:01;;;;;;;4.10;3.70;;;26.90;1.00;;;;;;5036279;28;20453;-70
2023/09/06 11:27:33;;;;;;;4.07;3.77;;;27.00;1.00;;;;;;5046490;28;20695;-71
2023/09/06 11:30:10;;;;;;;7.77;4.10;;;27.00;1.00;;;;;;5044280;28;20175;-65
2023/09/06 11:32:39;;;;;;;4.90;4.03;;;27.10;1.00;;;;;;5050967;28;20453;-71
2023/09/06 11:35:08;;;;;;;4.03;3.73;;;27.10;1.00;;;;;;5052251;28;20393;-71
2023/09/06 11:37:38;;;;;;;4.57;4.27;;;27.10;1.00;;;;;;5049475;28;20484;-68
2023/09/06 11:40:15;;;;;;;4.47;3.93;;;26.90;1.00;;;;;;5050382;28;20455;-69
2023/09/06 11:42:48;;;;;;;3.30;2.90;;;26.80;1.00;;;;;;5050263;28;20448;-71
2023/09/06 11:45:17;;;;;;;4.07;3.77;;;26.90;1.00;;;;;;5050249;28;20433;-69
2023/09/06 11:47:45;;;;;;;3.90;3.70;;;27.00;1.00;;;;;;5051900;28;20940;-64
2023/09/06 11:50:13;;;;;;;3.60;3.40;;;27.20;1.00;;;;;;5052016;28;20433;-71
2023/09/06 11:52:41;;;;;;;4.50;3.87;;;27.20;1.00;;;;;;5052604;28;20420;-65
2023/09/06 11:55:09;;;;;;;4.23;3.70;;;27.20;1.00;;;;;;5043424;28;20972;-66
2023/09/06 11:57:39;;;;;;;5.50;3.43;;;27.20;1.00;;;;;;5039213;28;20499;-70
2023/09/06 12:00:25;;;;;;;6.17;3.50;;;27.40;1.00;;;;;;5056859;28;20398;-71
2023/09/06 12:02:51;;;;;;;6.37;4.03;;;27.50;1.00;;;;;;5054261;28;20406;-72
2023/09/06 12:05:23;;;;;;;4.20;3.80;;;27.50;1.00;;;;;;5035823;28;20467;-70
2023/09/06 12:07:50;;;;;;;4.63;3.33;;;27.40;1.00;;;;;;5037180;28;20225;-71
2023/09/06 12:10:21;;;;;;;4.33;4.03;;;27.40;1.00;;;;;;5036444;28;20406;-65
2023/09/06 12:12:51;;;;;;;4.83;3.37;;;27.50;1.00;;;;;;5041806;28;20425;-69
2023/09/06 12:15:19;;;;;;;4.53;4.20;;;27.50;1.00;;;;;;5055328;28;20413;-70
2023/09/06 12:17:50;;;;;;;3.50;3.30;;;27.40;1.00;;;;;;5054901;28;21103;-65
2023/09/06 12:20:23;;;;;;;4.00;3.63;;;27.40;1.00;;;;;;5057031;28;20934;-69
2023/09/06 12:22:50;;;;;;;3.87;3.57;;;27.50;1.00;;;;;;5057082;28;20412;-65
2023/09/06 12:25:18;;;;;;;3.50;3.30;;;27.50;1.00;;;;;;5050716;28;20436;-70
2023/09/06 12:27:47;;;;;;;4.07;3.20;;;27.60;1.00;;;;;;5038409;28;20954;-71
2023/09/06 12:30:16;;;;;;;4.67;4.27;;;27.80;1.00;;;;;;5036868;28;20407;-68
2023/09/06 12:32:42;;;;;;;4.13;3.33;;;27.90;1.00;;;;;;5036726;28;20444;-71
2023/09/06 12:35:09;;;;;;;3.20;3.00;;;28.00;1.00;;;;;;5033793;28;20830;-71
2023/09/06 12:37:36;;;;;;;3.30;3.10;;;28.00;1.00;;;;;;5036581;28;20429;-70
2023/09/06 12:40:09;;;;;;;5.57;3.40;;;28.10;1.00;;;;;;5042870;28;20429;-67
2023/09/06 12:42:37;;;;;;;4.80;3.00;;;28.30;1.00;;;;;;5048963;28;20468;-71
2023/09/06 12:45:03;;;;;;;3.83;3.30;;;28.20;1.00;;;;;;5055628;28;20591;-74
2023/09/06 12:47:29;;;;;;;3.00;2.80;;;28.10;1.00;;;;;;5054749;28;20449;-65